Sbi Carioca — V7LF4 — position and weather

sailwx.info

Track history (hours):
 
Tides and Currents Weather Stations Pressure Air Temp Water Temp Dewpoint Dewpoint Depression Visibility Wind Speed Wind Dir Waves Ship Positions

Sbi Carioca

Last reported at 2018-Feb-22 01:50 UTC. Time now 2018-Feb-24 18:19 UTC.
Position N 36°49' W 075°46'.

Length 229 m; draft 14.6 m.

Type: Cargo ship. MMSI: 538006268.

Date/timePositionNaut miles runAvg speedWind from/ knotsBaromVisibWave heightAir tempDewpointWater temp
2018-Feb-22 01:50N 36°49' W 075°46'4 9.6
2018-Feb-22 01:25N 36°51' W 075°51'4 9.4
2018-Feb-22 01:00N 36°54' W 075°54'4 8.8
2018-Feb-22 00:31N 36°56' W 075°59'5 9.0
2018-Feb-22 00:00N 36°58' W 076°04'5 8.8
2018-Feb-21 23:29N 36°59' W 076°10'4 8.6
2018-Feb-21 22:58N 37°00' W 076°15'5 9.3
2018-Feb-21 22:28N 36°58' W 076°20'4 8.0
2018-Feb-21 21:57N 36°57' W 076°25'0 0.5
2018-Feb-21 21:10N 36°58' W 076°25'0 0.0
2018-Feb-21 20:55N 36°58' W 076°25'0 0.0
2018-Feb-21 20:19N 36°58' W 076°25'0 0.0
2018-Feb-21 19:55N 36°58' W 076°25'0 0.0
2018-Feb-21 19:25N 36°58' W 076°25'0 0.0
2018-Feb-21 18:58N 36°58' W 076°25'0 0.0
2018-Feb-21 18:28N 36°58' W 076°25'0 0.0
2018-Feb-21 17:58N 36°58' W 076°25'0 0.0
2018-Feb-21 17:28N 36°58' W 076°25'0 0.0
2018-Feb-21 16:31N 36°58' W 076°25'0 0.0
2018-Feb-21 16:01N 36°58' W 076°25'0 0.0
2018-Feb-21 15:43N 36°58' W 076°25'0 0.0
2018-Feb-21 15:28N 36°58' W 076°25'0 0.0
2018-Feb-21 14:58N 36°58' W 076°25'0 0.0
2018-Feb-21 14:13N 36°58' W 076°25'0 0.0
2018-Feb-21 13:37N 36°58' W 076°25'0 0.0
2018-Feb-21 13:13N 36°58' W 076°25'0 0.0
2018-Feb-21 12:55N 36°58' W 076°25'0 0.0
2018-Feb-21 12:25N 36°58' W 076°25'0 0.0
2018-Feb-21 11:55N 36°58' W 076°25'0 0.0
2018-Feb-21 11:13N 36°58' W 076°25'0 0.0
2018-Feb-21 10:55N 36°58' W 076°25'0 0.0
2018-Feb-21 10:25N 36°58' W 076°25'0 0.0
2018-Feb-21 09:55N 36°58' W 076°25'0 0.0
2018-Feb-21 09:25N 36°58' W 076°25'0 0.0
2018-Feb-21 08:55N 36°58' W 076°25'0 0.0
2018-Feb-21 08:25N 36°58' W 076°25'0 0.0
2018-Feb-21 07:55N 36°58' W 076°25'0 0.0
2018-Feb-21 07:25N 36°58' W 076°25'0 0.0
2018-Feb-21 06:55N 36°58' W 076°25'0 0.0
2018-Feb-21 06:25N 36°58' W 076°25'0 0.0
2018-Feb-21 05:55N 36°58' W 076°25'0 0.0
2018-Feb-21 05:28N 36°58' W 076°25'0 0.0
2018-Feb-21 04:58N 36°58' W 076°25'0 0.0
2018-Feb-21 04:28N 36°58' W 076°25'0 0.0
2018-Feb-21 03:58N 36°58' W 076°25'0 0.0
2018-Feb-21 03:25N 36°58' W 076°25'0 0.0
2018-Feb-21 02:55N 36°58' W 076°25'0 0.0
2018-Feb-21 02:25N 36°58' W 076°25'0 0.0
2018-Feb-21 01:55N 36°58' W 076°25'0 0.0
2018-Feb-21 01:28N 36°58' W 076°25'0 0.0
2018-Feb-21 00:58N 36°58' W 076°25'0 0.0
2018-Feb-21 00:22N 36°58' W 076°25'0 0.0
2018-Feb-20 23:49N 36°58' W 076°25'0 0.0
2018-Feb-20 23:25N 36°58' W 076°25'0 0.0
2018-Feb-20 22:58N 36°58' W 076°25'0 0.0
2018-Feb-20 22:25N 36°58' W 076°25'0 0.0
2018-Feb-20 21:49N 36°58' W 076°25'0 0.0
2018-Feb-20 21:25N 36°58' W 076°25'0 0.0
2018-Feb-20 20:58N 36°58' W 076°25'0 0.0
2018-Feb-20 20:25N 36°58' W 076°25'0 0.0
2018-Feb-20 19:58N 36°58' W 076°25'0 0.0
2018-Feb-20 19:25N 36°58' W 076°25'0 0.0
2018-Feb-20 18:55N 36°58' W 076°25'0 0.0
2018-Feb-20 18:28N 36°58' W 076°25'0 0.0
2018-Feb-20 17:25N 36°58' W 076°25'0 0.0
2018-Feb-20 16:55N 36°58' W 076°25'0 0.0
2018-Feb-20 16:25N 36°58' W 076°25'0 0.0
2018-Feb-20 15:55N 36°58' W 076°25'0 0.0
2018-Feb-20 15:28N 36°58' W 076°25'0 0.0
2018-Feb-20 14:55N 36°58' W 076°25'0 0.0
2018-Feb-20 14:25N 36°58' W 076°25'0 0.0
2018-Feb-20 13:49N 36°58' W 076°25'0 0.0
2018-Feb-20 13:25N 36°58' W 076°25'0 0.0
2018-Feb-20 12:55N 36°58' W 076°25'0 0.0
2018-Feb-20 12:19N 36°58' W 076°25'0 0.0
2018-Feb-20 11:49N 36°58' W 076°25'0 0.0
2018-Feb-20 11:25N 36°58' W 076°25'0 0.0
2018-Feb-20 10:52N 36°58' W 076°25'0 0.0
2018-Feb-20 10:28N 36°58' W 076°25'0 0.0
2018-Feb-20 09:58N 36°58' W 076°25'0 0.0
2018-Feb-20 09:22N 36°58' W 076°25'0 0.0
2018-Feb-20 08:58N 36°58' W 076°25'0 0.0
2018-Feb-20 08:28N 36°58' W 076°25'0 0.0
2018-Feb-20 07:58N 36°58' W 076°25'0 0.0
2018-Feb-20 07:28N 36°58' W 076°25'0 0.0
2018-Feb-20 06:58N 36°58' W 076°25'0 0.0
2018-Feb-20 06:28N 36°58' W 076°25'0 0.0
2018-Feb-20 05:58N 36°58' W 076°25'0 0.0
2018-Feb-20 05:28N 36°58' W 076°25'0 0.0
2018-Feb-20 04:58N 36°58' W 076°25'0 0.0
2018-Feb-20 04:28N 36°58' W 076°25'0 0.0
2018-Feb-20 03:55N 36°58' W 076°25'0 0.0
2018-Feb-20 03:25N 36°58' W 076°25'0 0.0
2018-Feb-20 02:55N 36°58' W 076°25'0 0.0
2018-Feb-20 02:25N 36°58' W 076°25'0 0.0
2018-Feb-20 01:58N 36°58' W 076°25'0 0.0
2018-Feb-20 01:28N 36°58' W 076°25'0 0.0
2018-Feb-20 01:00N 36°58' W 076°25'1 2.7
2018-Feb-20 00:30N 36°57' W 076°24'3 6.0
2018-Feb-20 00:00N 36°59' W 076°21'0 0.2
2018-Feb-19 23:29N 36°59' W 076°20'0 0.0
2018-Feb-19 22:56N 36°59' W 076°20'0 0.0
2018-Feb-19 22:20N 36°59' W 076°20'0 0.0
2018-Feb-19 21:56N 36°59' W 076°20'0 0.1
2018-Feb-19 21:29N 36°59' W 076°20'0 0.0
2018-Feb-19 20:59N 36°59' W 076°20'0 0.0
2018-Feb-19 20:29N 36°59' W 076°20'0 0.2
2018-Feb-19 19:59N 36°59' W 076°20'0 0.0
2018-Feb-19 19:23N 36°59' W 076°20'0 0.2
2018-Feb-19 18:59N 36°58' W 076°21'0 0.2
2018-Feb-19 18:26N 36°58' W 076°21'0 0.1
2018-Feb-19 17:59N 36°58' W 076°21'0 0.1
2018-Feb-19 17:29N 36°58' W 076°21'0 0.0
2018-Feb-19 16:53N 36°58' W 076°21'0 0.0
2018-Feb-19 16:29N 36°58' W 076°21'0 0.0
2018-Feb-19 15:59N 36°58' W 076°21'0 0.0
2018-Feb-19 15:29N 36°58' W 076°21'0 0.0
2018-Feb-19 14:56N 36°58' W 076°21'0 0.0
2018-Feb-19 14:29N 36°58' W 076°21'0 0.0
2018-Feb-19 13:56N 36°58' W 076°21'0 0.0
2018-Feb-19 13:23N 36°59' W 076°21'0 0.1
2018-Feb-19 12:59N 36°59' W 076°21'0 0.0
2018-Feb-19 12:08N 36°59' W 076°21'0 0.3
2018-Feb-19 11:56N 36°59' W 076°21'0 0.3
2018-Feb-19 11:29N 36°59' W 076°21'0 0.1
2018-Feb-19 10:59N 36°59' W 076°20'0 0.0
2018-Feb-19 10:29N 36°59' W 076°20'0 0.1
2018-Feb-19 09:56N 36°59' W 076°20'0 0.0
2018-Feb-19 09:29N 36°59' W 076°20'0 0.0
2018-Feb-19 08:59N 36°59' W 076°20'0 0.0
2018-Feb-19 08:23N 36°59' W 076°20'0 0.0
2018-Feb-19 07:59N 36°59' W 076°20'0 0.0
2018-Feb-19 07:26N 36°59' W 076°20'0 0.1
2018-Feb-19 06:59N 36°59' W 076°20'0 0.4
2018-Feb-19 06:29N 36°58' W 076°21'0 0.1
2018-Feb-19 05:59N 36°58' W 076°21'0 0.0
2018-Feb-19 05:29N 36°58' W 076°21'0 0.0
2018-Feb-19 04:59N 36°58' W 076°21'0 0.0
2018-Feb-19 04:26N 36°58' W 076°21'0 0.0
2018-Feb-19 03:56N 36°58' W 076°21'0 0.0
2018-Feb-19 03:29N 36°58' W 076°21'1 1.4
2018-Feb-19 02:59N 36°59' W 076°20'5 9.2
2018-Feb-19 02:27N 37°00' W 076°14'714.8
2018-Feb-19 02:00N 36°58' W 076°06'4 7.5
2018-Feb-19 01:29N 37°02' W 076°04'9 8.4
2018-Feb-19 00:23N 37°11' W 076°06'0 0.2
2018-Feb-18 23:59N 37°11' W 076°06'0 0.0
2018-Feb-18 23:29N 37°11' W 076°06'0 0.0
2018-Feb-18 22:59N 37°11' W 076°06'0 0.0
2018-Feb-18 22:29N 37°11' W 076°06'0 0.0
2018-Feb-18 21:23N 37°11' W 076°06'0 0.0
2018-Feb-18 20:59N 37°11' W 076°06'0 0.0
2018-Feb-18 20:23N 37°11' W 076°06'0 0.0
2018-Feb-18 19:59N 37°11' W 076°06'0 0.0
2018-Feb-18 19:29N 37°11' W 076°06'0 0.0
2018-Feb-18 18:59N 37°11' W 076°06'0 0.1
2018-Feb-18 17:41N 37°11' W 076°06'0 0.0
2018-Feb-18 15:11N 37°11' W 076°06'0 0.1
2018-Feb-18 14:59N 37°11' W 076°06'0 0.2
2018-Feb-18 14:23N 37°11' W 076°06'0 0.1
2018-Feb-18 13:59N 37°11' W 076°06'0 0.0
2018-Feb-18 13:29N 37°11' W 076°06'0 0.0
2018-Feb-18 12:59N 37°11' W 076°06'0 0.0
2018-Feb-18 12:23N 37°11' W 076°06'0 0.0
2018-Feb-18 11:59N 37°11' W 076°06'0 0.0
2018-Feb-18 11:23N 37°11' W 076°06'0 0.0
2018-Feb-18 10:59N 37°11' W 076°06'0 0.1
2018-Feb-18 10:29N 37°11' W 076°06'0 0.0
2018-Feb-18 09:53N 37°11' W 076°06'0 0.1
2018-Feb-18 09:29N 37°11' W 076°06'0 0.0
2018-Feb-18 08:59N 37°11' W 076°06'0 0.0
2018-Feb-18 08:29N 37°11' W 076°06'0 0.0
2018-Feb-18 07:59N 37°11' W 076°06'0 0.0
2018-Feb-18 07:29N 37°11' W 076°06'0 0.1
2018-Feb-18 06:53N 37°11' W 076°06'0 0.0
2018-Feb-18 05:59N 37°11' W 076°06'0 0.0
2018-Feb-18 05:11N 37°11' W 076°06'0 0.2
2018-Feb-18 04:53N 37°11' W 076°06'0 0.1
2018-Feb-18 03:53N 37°11' W 076°06'0 0.0
2018-Feb-18 03:29N 37°11' W 076°06'0 0.3
2018-Feb-18 02:59N 37°11' W 076°06'0 0.1
2018-Feb-18 02:23N 37°11' W 076°06'0 0.1
2018-Feb-18 01:59N 37°11' W 076°06'0 0.1
2018-Feb-18 01:23N 37°11' W 076°06'0 0.1
2018-Feb-18 00:59N 37°11' W 076°06'0 0.0
2018-Feb-18 00:29N 37°11' W 076°06'0 0.1
2018-Feb-17 23:59N 37°11' W 076°06'0 0.0
2018-Feb-17 23:29N 37°11' W 076°06'0 0.1
2018-Feb-17 22:59N 37°11' W 076°06'0 0.0
2018-Feb-17 22:29N 37°11' W 076°06'0 0.2
2018-Feb-17 21:59N 37°11' W 076°06'0 0.0
2018-Feb-17 21:29N 37°11' W 076°06'0 0.0
2018-Feb-17 20:59N 37°11' W 076°06'0 0.1
2018-Feb-17 20:29N 37°11' W 076°06'0 0.3
2018-Feb-17 19:59N 37°11' W 076°06'0 0.2
2018-Feb-17 19:14N 37°11' W 076°06'0 0.2
2018-Feb-17 18:59N 37°11' W 076°06'0 0.1
2018-Feb-17 18:17N 37°11' W 076°06'0 0.0
2018-Feb-17 17:59N 37°11' W 076°06'0 0.0
2018-Feb-17 17:29N 37°11' W 076°06'0 0.0
2018-Feb-17 16:59N 37°11' W 076°06'0 0.0
2018-Feb-17 14:47N 37°11' W 076°06'0 0.0
2018-Feb-17 01:17N 37°11' W 076°06'0 0.1
2018-Feb-17 00:59N 37°11' W 076°06'0 0.1
2018-Feb-17 00:23N 37°11' W 076°06'0 0.1
2018-Feb-16 23:59N 37°11' W 076°06'0 0.1
2018-Feb-16 23:29N 37°11' W 076°06'0 0.1
2018-Feb-16 22:44N 37°11' W 076°06'0 0.0
2018-Feb-16 22:23N 37°11' W 076°06'0 0.1
2018-Feb-16 21:59N 37°11' W 076°06'0 0.0
2018-Feb-16 21:29N 37°11' W 076°06'0 0.0
2018-Feb-16 20:56N 37°11' W 076°06'0 0.0
2018-Feb-16 20:29N 37°11' W 076°06'0 0.0
2018-Feb-16 19:59N 37°11' W 076°06'0 0.0
2018-Feb-16 18:59N 37°11' W 076°06'0 0.2
2018-Feb-16 18:29N 37°11' W 076°06'0 0.2
2018-Feb-16 17:59N 37°11' W 076°06'0 0.1
2018-Feb-16 17:29N 37°11' W 076°06'0 0.0
2018-Feb-16 16:59N 37°11' W 076°06'0 0.0
2018-Feb-16 16:23N 37°11' W 076°06'0 0.0
2018-Feb-16 15:56N 37°11' W 076°06'0 0.0
2018-Feb-16 15:29N 37°11' W 076°06'0 0.0
2018-Feb-16 14:59N 37°11' W 076°06'0 0.0
2018-Feb-16 14:29N 37°11' W 076°06'0 0.0
2018-Feb-16 13:59N 37°11' W 076°06'0 0.0
2018-Feb-16 13:29N 37°11' W 076°06'0 0.0
2018-Feb-16 12:59N 37°11' W 076°06'0 0.0
2018-Feb-16 12:29N 37°11' W 076°06'0 0.0
2018-Feb-16 11:59N 37°11' W 076°06'0 0.0
2018-Feb-16 11:29N 37°11' W 076°06'0 0.1
2018-Feb-16 10:53N 37°11' W 076°06'0 0.1
2018-Feb-16 10:17N 37°11' W 076°06'0 0.1
2018-Feb-16 09:59N 37°11' W 076°06'0 0.1
2018-Feb-16 09:23N 37°11' W 076°06'0 0.1
2018-Feb-16 08:59N 37°11' W 076°06'0 0.1
2018-Feb-16 08:29N 37°11' W 076°06'0 0.0
2018-Feb-16 07:59N 37°11' W 076°06'0 0.1
2018-Feb-16 07:29N 37°11' W 076°06'0 0.1
2018-Feb-16 06:59N 37°11' W 076°06'0 0.1
2018-Feb-16 06:29N 37°11' W 076°06'0 0.1
2018-Feb-16 05:59N 37°11' W 076°06'0 0.1
2018-Feb-16 05:29N 37°11' W 076°06'0 0.0
2018-Feb-16 04:23N 37°11' W 076°06'0 0.0
2018-Feb-16 03:59N 37°11' W 076°06'0 0.0
2018-Feb-16 02:44N 37°11' W 076°06'0 0.0
2018-Feb-16 02:14N 37°11' W 076°06'0 0.0
2018-Feb-16 01:47N 37°11' W 076°06'0 0.0
2018-Feb-16 00:23N 37°11' W 076°06'0 0.0
2018-Feb-15 23:59N 37°11' W 076°06'0 0.1
2018-Feb-15 23:11N 37°11' W 076°06'0 0.3
2018-Feb-15 22:59N 37°11' W 076°06'0 0.1
2018-Feb-15 22:17N 37°11' W 076°06'0 0.0
2018-Feb-15 21:59N 37°11' W 076°06'0 0.1
2018-Feb-15 21:29N 37°11' W 076°06'0 0.0
2018-Feb-15 20:47N 37°11' W 076°06'0 0.0
2018-Feb-15 20:29N 37°11' W 076°06'0 0.0
2018-Feb-15 19:59N 37°11' W 076°06'0 0.0
2018-Feb-15 19:26N 37°11' W 076°06'0 0.1
2018-Feb-15 18:53N 37°11' W 076°06'0 0.1
2018-Feb-15 18:29N 37°11' W 076°06'0 0.0
2018-Feb-15 17:47N 37°11' W 076°06'0 0.1
2018-Feb-15 17:29N 37°11' W 076°06'0 0.0
2018-Feb-15 16:59N 37°11' W 076°06'0 0.0
2018-Feb-15 16:29N 37°11' W 076°06'0 0.0
2018-Feb-15 15:56N 37°11' W 076°06'0 0.0
2018-Feb-15 15:29N 37°11' W 076°06'0 0.0
2018-Feb-15 14:59N 37°11' W 076°06'0 0.0
2018-Feb-15 14:29N 37°11' W 076°06'0 0.0
2018-Feb-15 13:56N 37°11' W 076°06'0 0.0
2018-Feb-15 13:26N 37°11' W 076°06'0 0.0
2018-Feb-15 12:59N 37°11' W 076°06'0 0.0
2018-Feb-15 12:29N 37°11' W 076°06'0 0.0
2018-Feb-15 11:56N 37°11' W 076°06'0 0.0
2018-Feb-15 11:29N 37°11' W 076°06'0 0.2
2018-Feb-15 10:59N 37°11' W 076°06'0 0.1
2018-Feb-15 10:29N 37°11' W 076°06'0 0.0
2018-Feb-15 09:59N 37°11' W 076°06'0 0.1
2018-Feb-15 09:29N 37°11' W 076°06'0 0.1
2018-Feb-15 08:59N 37°11' W 076°06'0 0.0
2018-Feb-15 08:23N 37°11' W 076°06'0 0.0
2018-Feb-15 07:56N 37°11' W 076°06'0 0.1
2018-Feb-15 07:29N 37°11' W 076°06'0 0.0
2018-Feb-15 06:59N 37°11' W 076°06'1 1.5
2018-Feb-15 06:22N 37°10' W 076°07'4 9.2
2018-Feb-15 05:56N 37°06' W 076°07'512.2
2018-Feb-15 05:30N 37°02' W 076°03'611.0
2018-Feb-15 05:00N 36°57' W 075°59'7 8.0
2018-Feb-15 04:05N 36°52' W 075°52'1 8.1
2018-Feb-15 03:59N 36°52' W 075°51'  
Track history (hours):
 
Tides and Currents Weather Stations Pressure Air Temp Water Temp Dewpoint Dewpoint Depression Visibility Wind Speed Wind Dir Waves Ship Positions

Sbi Carioca

Last reported at 2018-Feb-22 01:50 UTC. Time now 2018-Feb-24 18:19 UTC.
Position N 36°49' W 075°46'.

Length 229 m; draft 14.6 m.

Type: Cargo ship. MMSI: 538006268.

Date/timePositionNaut miles runAvg speedWind from/ knotsBaromVisibWave heightAir tempDewpointWater temp
2018-Feb-22 01:50N 36°49' W 075°46'4 9.6
2018-Feb-22 01:25N 36°51' W 075°51'4 9.4
2018-Feb-22 01:00N 36°54' W 075°54'4 8.8
2018-Feb-22 00:31N 36°56' W 075°59'5 9.0
2018-Feb-22 00:00N 36°58' W 076°04'5 8.8
2018-Feb-21 23:29N 36°59' W 076°10'4 8.6
2018-Feb-21 22:58N 37°00' W 076°15'5 9.3
2018-Feb-21 22:28N 36°58' W 076°20'4 8.0
2018-Feb-21 21:57N 36°57' W 076°25'0 0.5
2018-Feb-21 21:10N 36°58' W 076°25'0 0.0
2018-Feb-21 20:55N 36°58' W 076°25'0 0.0
2018-Feb-21 20:19N 36°58' W 076°25'0 0.0
2018-Feb-21 19:55N 36°58' W 076°25'0 0.0
2018-Feb-21 19:25N 36°58' W 076°25'0 0.0
2018-Feb-21 18:58N 36°58' W 076°25'0 0.0
2018-Feb-21 18:28N 36°58' W 076°25'0 0.0
2018-Feb-21 17:58N 36°58' W 076°25'0 0.0
2018-Feb-21 17:28N 36°58' W 076°25'0 0.0
2018-Feb-21 16:31N 36°58' W 076°25'0 0.0
2018-Feb-21 16:01N 36°58' W 076°25'0 0.0
2018-Feb-21 15:43N 36°58' W 076°25'0 0.0
2018-Feb-21 15:28N 36°58' W 076°25'0 0.0
2018-Feb-21 14:58N 36°58' W 076°25'0 0.0
2018-Feb-21 14:13N 36°58' W 076°25'0 0.0
2018-Feb-21 13:37N 36°58' W 076°25'0 0.0
2018-Feb-21 13:13N 36°58' W 076°25'0 0.0
2018-Feb-21 12:55N 36°58' W 076°25'0 0.0
2018-Feb-21 12:25N 36°58' W 076°25'0 0.0
2018-Feb-21 11:55N 36°58' W 076°25'0 0.0
2018-Feb-21 11:13N 36°58' W 076°25'0 0.0
2018-Feb-21 10:55N 36°58' W 076°25'0 0.0
2018-Feb-21 10:25N 36°58' W 076°25'0 0.0
2018-Feb-21 09:55N 36°58' W 076°25'0 0.0
2018-Feb-21 09:25N 36°58' W 076°25'0 0.0
2018-Feb-21 08:55N 36°58' W 076°25'0 0.0
2018-Feb-21 08:25N 36°58' W 076°25'0 0.0
2018-Feb-21 07:55N 36°58' W 076°25'0 0.0
2018-Feb-21 07:25N 36°58' W 076°25'0 0.0
2018-Feb-21 06:55N 36°58' W 076°25'0 0.0
2018-Feb-21 06:25N 36°58' W 076°25'0 0.0
2018-Feb-21 05:55N 36°58' W 076°25'0 0.0
2018-Feb-21 05:28N 36°58' W 076°25'0 0.0
2018-Feb-21 04:58N 36°58' W 076°25'0 0.0
2018-Feb-21 04:28N 36°58' W 076°25'0 0.0
2018-Feb-21 03:58N 36°58' W 076°25'0 0.0
2018-Feb-21 03:25N 36°58' W 076°25'0 0.0
2018-Feb-21 02:55N 36°58' W 076°25'0 0.0
2018-Feb-21 02:25N 36°58' W 076°25'0 0.0
2018-Feb-21 01:55N 36°58' W 076°25'0 0.0
2018-Feb-21 01:28N 36°58' W 076°25'0 0.0
2018-Feb-21 00:58N 36°58' W 076°25'0 0.0
2018-Feb-21 00:22N 36°58' W 076°25'0 0.0
2018-Feb-20 23:49N 36°58' W 076°25'0 0.0
2018-Feb-20 23:25N 36°58' W 076°25'0 0.0
2018-Feb-20 22:58N 36°58' W 076°25'0 0.0
2018-Feb-20 22:25N 36°58' W 076°25'0 0.0
2018-Feb-20 21:49N 36°58' W 076°25'0 0.0
2018-Feb-20 21:25N 36°58' W 076°25'0 0.0
2018-Feb-20 20:58N 36°58' W 076°25'0 0.0
2018-Feb-20 20:25N 36°58' W 076°25'0 0.0
2018-Feb-20 19:58N 36°58' W 076°25'0 0.0
2018-Feb-20 19:25N 36°58' W 076°25'0 0.0
2018-Feb-20 18:55N 36°58' W 076°25'0 0.0
2018-Feb-20 18:28N 36°58' W 076°25'0 0.0
2018-Feb-20 17:25N 36°58' W 076°25'0 0.0
2018-Feb-20 16:55N 36°58' W 076°25'0 0.0
2018-Feb-20 16:25N 36°58' W 076°25'0 0.0
2018-Feb-20 15:55N 36°58' W 076°25'0 0.0
2018-Feb-20 15:28N 36°58' W 076°25'0 0.0
2018-Feb-20 14:55N 36°58' W 076°25'0 0.0
2018-Feb-20 14:25N 36°58' W 076°25'0 0.0
2018-Feb-20 13:49N 36°58' W 076°25'0 0.0
2018-Feb-20 13:25N 36°58' W 076°25'0 0.0
2018-Feb-20 12:55N 36°58' W 076°25'0 0.0
2018-Feb-20 12:19N 36°58' W 076°25'0 0.0
2018-Feb-20 11:49N 36°58' W 076°25'0 0.0
2018-Feb-20 11:25N 36°58' W 076°25'0 0.0
2018-Feb-20 10:52N 36°58' W 076°25'0 0.0
2018-Feb-20 10:28N 36°58' W 076°25'0 0.0
2018-Feb-20 09:58N 36°58' W 076°25'0 0.0
2018-Feb-20 09:22N 36°58' W 076°25'0 0.0
2018-Feb-20 08:58N 36°58' W 076°25'0 0.0
2018-Feb-20 08:28N 36°58' W 076°25'0 0.0
2018-Feb-20 07:58N 36°58' W 076°25'0 0.0
2018-Feb-20 07:28N 36°58' W 076°25'0 0.0
2018-Feb-20 06:58N 36°58' W 076°25'0 0.0
2018-Feb-20 06:28N 36°58' W 076°25'0 0.0
2018-Feb-20 05:58N 36°58' W 076°25'0 0.0
2018-Feb-20 05:28N 36°58' W 076°25'0 0.0
2018-Feb-20 04:58N 36°58' W 076°25'0 0.0
2018-Feb-20 04:28N 36°58' W 076°25'0 0.0
2018-Feb-20 03:55N 36°58' W 076°25'0 0.0
2018-Feb-20 03:25N 36°58' W 076°25'0 0.0
2018-Feb-20 02:55N 36°58' W 076°25'0 0.0
2018-Feb-20 02:25N 36°58' W 076°25'0 0.0
2018-Feb-20 01:58N 36°58' W 076°25'0 0.0
2018-Feb-20 01:28N 36°58' W 076°25'0 0.0
2018-Feb-20 01:00N 36°58' W 076°25'1 2.7
2018-Feb-20 00:30N 36°57' W 076°24'3 6.0
2018-Feb-20 00:00N 36°59' W 076°21'0 0.2
2018-Feb-19 23:29N 36°59' W 076°20'0 0.0
2018-Feb-19 22:56N 36°59' W 076°20'0 0.0
2018-Feb-19 22:20N 36°59' W 076°20'0 0.0
2018-Feb-19 21:56N 36°59' W 076°20'0 0.1
2018-Feb-19 21:29N 36°59' W 076°20'0 0.0
2018-Feb-19 20:59N 36°59' W 076°20'0 0.0
2018-Feb-19 20:29N 36°59' W 076°20'0 0.2
2018-Feb-19 19:59N 36°59' W 076°20'0 0.0
2018-Feb-19 19:23N 36°59' W 076°20'0 0.2
2018-Feb-19 18:59N 36°58' W 076°21'0 0.2
2018-Feb-19 18:26N 36°58' W 076°21'0 0.1
2018-Feb-19 17:59N 36°58' W 076°21'0 0.1
2018-Feb-19 17:29N 36°58' W 076°21'0 0.0
2018-Feb-19 16:53N 36°58' W 076°21'0 0.0
2018-Feb-19 16:29N 36°58' W 076°21'0 0.0
2018-Feb-19 15:59N 36°58' W 076°21'0 0.0
2018-Feb-19 15:29N 36°58' W 076°21'0 0.0
2018-Feb-19 14:56N 36°58' W 076°21'0 0.0
2018-Feb-19 14:29N 36°58' W 076°21'0 0.0
2018-Feb-19 13:56N 36°58' W 076°21'0 0.0
2018-Feb-19 13:23N 36°59' W 076°21'0 0.1
2018-Feb-19 12:59N 36°59' W 076°21'0 0.0
2018-Feb-19 12:08N 36°59' W 076°21'0 0.3
2018-Feb-19 11:56N 36°59' W 076°21'0 0.3
2018-Feb-19 11:29N 36°59' W 076°21'0 0.1
2018-Feb-19 10:59N 36°59' W 076°20'0 0.0
2018-Feb-19 10:29N 36°59' W 076°20'0 0.1
2018-Feb-19 09:56N 36°59' W 076°20'0 0.0
2018-Feb-19 09:29N 36°59' W 076°20'0 0.0
2018-Feb-19 08:59N 36°59' W 076°20'0 0.0
2018-Feb-19 08:23N 36°59' W 076°20'0 0.0
2018-Feb-19 07:59N 36°59' W 076°20'0 0.0
2018-Feb-19 07:26N 36°59' W 076°20'0 0.1
2018-Feb-19 06:59N 36°59' W 076°20'0 0.4
2018-Feb-19 06:29N 36°58' W 076°21'0 0.1
2018-Feb-19 05:59N 36°58' W 076°21'0 0.0
2018-Feb-19 05:29N 36°58' W 076°21'0 0.0
2018-Feb-19 04:59N 36°58' W 076°21'0 0.0
2018-Feb-19 04:26N 36°58' W 076°21'0 0.0
2018-Feb-19 03:56N 36°58' W 076°21'0 0.0
2018-Feb-19 03:29N 36°58' W 076°21'1 1.4
2018-Feb-19 02:59N 36°59' W 076°20'5 9.2
2018-Feb-19 02:27N 37°00' W 076°14'714.8
2018-Feb-19 02:00N 36°58' W 076°06'4 7.5
2018-Feb-19 01:29N 37°02' W 076°04'9 8.4
2018-Feb-19 00:23N 37°11' W 076°06'0 0.2
2018-Feb-18 23:59N 37°11' W 076°06'0 0.0
2018-Feb-18 23:29N 37°11' W 076°06'0 0.0
2018-Feb-18 22:59N 37°11' W 076°06'0 0.0
2018-Feb-18 22:29N 37°11' W 076°06'0 0.0
2018-Feb-18 21:23N 37°11' W 076°06'0 0.0
2018-Feb-18 20:59N 37°11' W 076°06'0 0.0
2018-Feb-18 20:23N 37°11' W 076°06'0 0.0
2018-Feb-18 19:59N 37°11' W 076°06'0 0.0
2018-Feb-18 19:29N 37°11' W 076°06'0 0.0
2018-Feb-18 18:59N 37°11' W 076°06'0 0.1
2018-Feb-18 17:41N 37°11' W 076°06'0 0.0
2018-Feb-18 15:11N 37°11' W 076°06'0 0.1
2018-Feb-18 14:59N 37°11' W 076°06'0 0.2
2018-Feb-18 14:23N 37°11' W 076°06'0 0.1
2018-Feb-18 13:59N 37°11' W 076°06'0 0.0
2018-Feb-18 13:29N 37°11' W 076°06'0 0.0
2018-Feb-18 12:59N 37°11' W 076°06'0 0.0
2018-Feb-18 12:23N 37°11' W 076°06'0 0.0
2018-Feb-18 11:59N 37°11' W 076°06'0 0.0
2018-Feb-18 11:23N 37°11' W 076°06'0 0.0
2018-Feb-18 10:59N 37°11' W 076°06'0 0.1
2018-Feb-18 10:29N 37°11' W 076°06'0 0.0
2018-Feb-18 09:53N 37°11' W 076°06'0 0.1
2018-Feb-18 09:29N 37°11' W 076°06'0 0.0
2018-Feb-18 08:59N 37°11' W 076°06'0 0.0
2018-Feb-18 08:29N 37°11' W 076°06'0 0.0
2018-Feb-18 07:59N 37°11' W 076°06'0 0.0
2018-Feb-18 07:29N 37°11' W 076°06'0 0.1
2018-Feb-18 06:53N 37°11' W 076°06'0 0.0
2018-Feb-18 05:59N 37°11' W 076°06'0 0.0
2018-Feb-18 05:11N 37°11' W 076°06'0 0.2
2018-Feb-18 04:53N 37°11' W 076°06'0 0.1
2018-Feb-18 03:53N 37°11' W 076°06'0 0.0
2018-Feb-18 03:29N 37°11' W 076°06'0 0.3
2018-Feb-18 02:59N 37°11' W 076°06'0 0.1
2018-Feb-18 02:23N 37°11' W 076°06'0 0.1
2018-Feb-18 01:59N 37°11' W 076°06'0 0.1
2018-Feb-18 01:23N 37°11' W 076°06'0 0.1
2018-Feb-18 00:59N 37°11' W 076°06'0 0.0
2018-Feb-18 00:29N 37°11' W 076°06'0 0.1
2018-Feb-17 23:59N 37°11' W 076°06'0 0.0
2018-Feb-17 23:29N 37°11' W 076°06'0 0.1
2018-Feb-17 22:59N 37°11' W 076°06'0 0.0
2018-Feb-17 22:29N 37°11' W 076°06'0 0.2
2018-Feb-17 21:59N 37°11' W 076°06'0 0.0
2018-Feb-17 21:29N 37°11' W 076°06'0 0.0
2018-Feb-17 20:59N 37°11' W 076°06'0 0.1
2018-Feb-17 20:29N 37°11' W 076°06'0 0.3
2018-Feb-17 19:59N 37°11' W 076°06'0 0.2
2018-Feb-17 19:14N 37°11' W 076°06'0 0.2
2018-Feb-17 18:59N 37°11' W 076°06'0 0.1
2018-Feb-17 18:17N 37°11' W 076°06'0 0.0
2018-Feb-17 17:59N 37°11' W 076°06'0 0.0
2018-Feb-17 17:29N 37°11' W 076°06'0 0.0
2018-Feb-17 16:59N 37°11' W 076°06'0 0.0
2018-Feb-17 14:47N 37°11' W 076°06'0 0.0
2018-Feb-17 01:17N 37°11' W 076°06'0 0.1
2018-Feb-17 00:59N 37°11' W 076°06'0 0.1
2018-Feb-17 00:23N 37°11' W 076°06'0 0.1
2018-Feb-16 23:59N 37°11' W 076°06'0 0.1
2018-Feb-16 23:29N 37°11' W 076°06'0 0.1
2018-Feb-16 22:44N 37°11' W 076°06'0 0.0
2018-Feb-16 22:23N 37°11' W 076°06'0 0.1
2018-Feb-16 21:59N 37°11' W 076°06'0 0.0
2018-Feb-16 21:29N 37°11' W 076°06'0 0.0
2018-Feb-16 20:56N 37°11' W 076°06'0 0.0
2018-Feb-16 20:29N 37°11' W 076°06'0 0.0
2018-Feb-16 19:59N 37°11' W 076°06'0 0.0
2018-Feb-16 18:59N 37°11' W 076°06'0 0.2
2018-Feb-16 18:29N 37°11' W 076°06'0 0.2
2018-Feb-16 17:59N 37°11' W 076°06'0 0.1
2018-Feb-16 17:29N 37°11' W 076°06'0 0.0
2018-Feb-16 16:59N 37°11' W 076°06'0 0.0
2018-Feb-16 16:23N 37°11' W 076°06'0 0.0
2018-Feb-16 15:56N 37°11' W 076°06'0 0.0
2018-Feb-16 15:29N 37°11' W 076°06'0 0.0
2018-Feb-16 14:59N 37°11' W 076°06'0 0.0
2018-Feb-16 14:29N 37°11' W 076°06'0 0.0
2018-Feb-16 13:59N 37°11' W 076°06'0 0.0
2018-Feb-16 13:29N 37°11' W 076°06'0 0.0
2018-Feb-16 12:59N 37°11' W 076°06'0 0.0
2018-Feb-16 12:29N 37°11' W 076°06'0 0.0
2018-Feb-16 11:59N 37°11' W 076°06'0 0.0
2018-Feb-16 11:29N 37°11' W 076°06'0 0.1
2018-Feb-16 10:53N 37°11' W 076°06'0 0.1
2018-Feb-16 10:17N 37°11' W 076°06'0 0.1
2018-Feb-16 09:59N 37°11' W 076°06'0 0.1
2018-Feb-16 09:23N 37°11' W 076°06'0 0.1
2018-Feb-16 08:59N 37°11' W 076°06'0 0.1
2018-Feb-16 08:29N 37°11' W 076°06'0 0.0
2018-Feb-16 07:59N 37°11' W 076°06'0 0.1
2018-Feb-16 07:29N 37°11' W 076°06'0 0.1
2018-Feb-16 06:59N 37°11' W 076°06'0 0.1
2018-Feb-16 06:29N 37°11' W 076°06'0 0.1
2018-Feb-16 05:59N 37°11' W 076°06'0 0.1
2018-Feb-16 05:29N 37°11' W 076°06'0 0.0
2018-Feb-16 04:23N 37°11' W 076°06'0 0.0
2018-Feb-16 03:59N 37°11' W 076°06'0 0.0
2018-Feb-16 02:44N 37°11' W 076°06'0 0.0
2018-Feb-16 02:14N 37°11' W 076°06'0 0.0
2018-Feb-16 01:47N 37°11' W 076°06'0 0.0
2018-Feb-16 00:23N 37°11' W 076°06'0 0.0
2018-Feb-15 23:59N 37°11' W 076°06'0 0.1
2018-Feb-15 23:11N 37°11' W 076°06'0 0.3
2018-Feb-15 22:59N 37°11' W 076°06'0 0.1
2018-Feb-15 22:17N 37°11' W 076°06'0 0.0
2018-Feb-15 21:59N 37°11' W 076°06'0 0.1
2018-Feb-15 21:29N 37°11' W 076°06'0 0.0
2018-Feb-15 20:47N 37°11' W 076°06'0 0.0
2018-Feb-15 20:29N 37°11' W 076°06'0 0.0
2018-Feb-15 19:59N 37°11' W 076°06'0 0.0
2018-Feb-15 19:26N 37°11' W 076°06'0 0.1
2018-Feb-15 18:53N 37°11' W 076°06'0 0.1
2018-Feb-15 18:29N 37°11' W 076°06'0 0.0
2018-Feb-15 17:47N 37°11' W 076°06'0 0.1
2018-Feb-15 17:29N 37°11' W 076°06'0 0.0
2018-Feb-15 16:59N 37°11' W 076°06'0 0.0
2018-Feb-15 16:29N 37°11' W 076°06'0 0.0
2018-Feb-15 15:56N 37°11' W 076°06'0 0.0
2018-Feb-15 15:29N 37°11' W 076°06'0 0.0
2018-Feb-15 14:59N 37°11' W 076°06'0 0.0
2018-Feb-15 14:29N 37°11' W 076°06'0 0.0
2018-Feb-15 13:56N 37°11' W 076°06'0 0.0
2018-Feb-15 13:26N 37°11' W 076°06'0 0.0
2018-Feb-15 12:59N 37°11' W 076°06'0 0.0
2018-Feb-15 12:29N 37°11' W 076°06'0 0.0
2018-Feb-15 11:56N 37°11' W 076°06'0 0.0
2018-Feb-15 11:29N 37°11' W 076°06'0 0.2
2018-Feb-15 10:59N 37°11' W 076°06'0 0.1
2018-Feb-15 10:29N 37°11' W 076°06'0 0.0
2018-Feb-15 09:59N 37°11' W 076°06'0 0.1
2018-Feb-15 09:29N 37°11' W 076°06'0 0.1
2018-Feb-15 08:59N 37°11' W 076°06'0 0.0
2018-Feb-15 08:23N 37°11' W 076°06'0 0.0
2018-Feb-15 07:56N 37°11' W 076°06'0 0.1
2018-Feb-15 07:29N 37°11' W 076°06'0 0.0
2018-Feb-15 06:59N 37°11' W 076°06'1 1.5
2018-Feb-15 06:22N 37°10' W 076°07'4 9.2
2018-Feb-15 05:56N 37°06' W 076°07'512.2
2018-Feb-15 05:30N 37°02' W 076°03'611.0
2018-Feb-15 05:00N 36°57' W 075°59'7 8.0
2018-Feb-15 04:05N 36°52' W 075°52'1 8.1
2018-Feb-15 03:59N 36°52' W 075°51'  

Dump ship's entire track history